Spirit Of America — WDB8298 — position and weather

sailwx.info

Track history (hours):
 
Tides and Currents Weather Stations Pressure Air Temp Water Temp Dewpoint Dewpoint Depression Visibility Wind Speed Wind Dir Waves Ship Positions

Spirit Of America

Owner: CITY OF NEW YORK, Brooklyn, NY. More information available from US FCC via Universal Licensing System and Coast Guard Vessel Documentation Center.

Last reported at 2017-Sep-22 02:00 UTC. Time now 2017-Sep-22 18:57 UTC.
Position N 40°42' W 074°01'.

Length 104 m; draft 4 m.

Type: Passenger vessel. MMSI: 366902394.

Date/timePositionNaut miles runAvg speedWind from/ knotsBaromVisibWave heightAir tempDewpointWater temp
2017-Sep-22 02:00N 40°42' W 074°01'4 8.6
2017-Sep-22 01:30N 40°39' W 074°04'0 0.0
2017-Sep-22 01:00N 40°39' W 074°04'0 0.0
2017-Sep-22 00:30N 40°39' W 074°04'4 8.6
2017-Sep-22 00:00N 40°42' W 074°01'4 8.6
2017-Sep-21 23:30N 40°39' W 074°04'2 4.2
2017-Sep-21 23:00N 40°40' W 074°03'0 0.4
2017-Sep-21 22:31N 40°40' W 074°02'0 0.4
2017-Sep-21 22:00N 40°40' W 074°03'2 2.7
2017-Sep-21 21:13N 40°39' W 074°04'0 0.6
2017-Sep-21 21:00N 40°39' W 074°04'4 7.3
2017-Sep-21 20:30N 40°42' W 074°01'4 7.2
2017-Sep-21 19:58N 40°39' W 074°04'0 0.0
2017-Sep-21 19:28N 40°39' W 074°04'0 0.0
2017-Sep-21 18:58N 40°39' W 074°04'0 0.0
2017-Sep-21 18:28N 40°39' W 074°04'0 0.0
2017-Sep-21 17:58N 40°39' W 074°04'0 0.1
2017-Sep-21 17:30N 40°39' W 074°04'4 8.1
2017-Sep-21 16:58N 40°42' W 074°01'4 7.4
2017-Sep-21 16:23N 40°39' W 074°04'411.1
2017-Sep-21 16:01N 40°42' W 074°01'4 8.6
2017-Sep-21 15:30N 40°39' W 074°04'0 0.1
2017-Sep-21 15:00N 40°39' W 074°04'0 0.0
2017-Sep-21 14:30N 40°39' W 074°04'0 0.0
2017-Sep-21 14:01N 40°39' W 074°04'2 4.2
2017-Sep-21 13:30N 40°40' W 074°03'0 0.3
2017-Sep-21 13:01N 40°40' W 074°02'0 0.5
2017-Sep-21 12:31N 40°40' W 074°03'1 2.4
2017-Sep-21 12:00N 40°41' W 074°02'3 5.9
2017-Sep-21 11:31N 40°39' W 074°04'4 7.7
2017-Sep-21 11:01N 40°42' W 074°01'4 8.2
2017-Sep-21 10:30N 40°39' W 074°04'0 0.0
2017-Sep-21 10:00N 40°39' W 074°04'0 0.0
2017-Sep-21 09:30N 40°39' W 074°04'0 0.0
2017-Sep-21 09:00N 40°39' W 074°04'0 0.0
2017-Sep-21 08:30N 40°39' W 074°04'0 0.1
2017-Sep-21 07:59N 40°39' W 074°04'0 0.0
2017-Sep-21 07:29N 40°39' W 074°04'0 0.0
2017-Sep-21 06:59N 40°39' W 074°04'0 0.0
2017-Sep-21 06:29N 40°39' W 074°04'0 0.0
2017-Sep-21 05:59N 40°39' W 074°04'0 0.0
2017-Sep-21 05:28N 40°39' W 074°04'0 0.1
2017-Sep-21 05:00N 40°39' W 074°04'0 0.0
2017-Sep-21 04:30N 40°39' W 074°04'0 0.0
2017-Sep-21 04:00N 40°39' W 074°04'4 8.6
2017-Sep-21 03:31N 40°42' W 074°01'4 8.5
2017-Sep-21 03:01N 40°39' W 074°04'0 0.0
2017-Sep-21 02:31N 40°39' W 074°04'4 8.5
2017-Sep-21 02:00N 40°42' W 074°01'4 8.6
2017-Sep-21 01:31N 40°39' W 074°04'0 0.1
2017-Sep-21 01:00N 40°39' W 074°04'0 0.0
2017-Sep-21 00:30N 40°39' W 074°04'4 8.6
2017-Sep-21 00:01N 40°42' W 074°01'4 8.6
2017-Sep-20 23:31N 40°39' W 074°04'2 4.2
2017-Sep-20 23:01N 40°40' W 074°03'0 0.3
2017-Sep-20 22:30N 40°40' W 074°03'1 1.4
2017-Sep-20 22:01N 40°41' W 074°02'0 0.6
2017-Sep-20 21:30N 40°41' W 074°02'2 4.0
2017-Sep-20 21:01N 40°39' W 074°03'2 5.0
2017-Sep-20 20:31N 40°41' W 074°02'3 0.6
2017-Sep-20 14:53N 40°39' W 074°04'0 0.1
2017-Sep-20 14:01N 40°39' W 074°04'2 3.7
2017-Sep-20 13:31N 40°40' W 074°03'0 1.0
2017-Sep-20 13:01N 40°40' W 074°02'1 1.1
2017-Sep-20 12:30N 40°40' W 074°03'1 2.3
2017-Sep-20 12:01N 40°41' W 074°02'2 5.0
2017-Sep-20 11:30N 40°39' W 074°04'4 7.2
2017-Sep-20 11:01N 40°42' W 074°01'4 8.0
2017-Sep-20 10:30N 40°39' W 074°04'1 1.2
2017-Sep-20 10:01N 40°38' W 074°04'0 0.4
2017-Sep-20 09:30N 40°38' W 074°04'0 0.6
2017-Sep-20 09:00N 40°39' W 074°04'0 0.0
2017-Sep-20 08:30N 40°39' W 074°04'0 0.1
2017-Sep-20 07:58N 40°39' W 074°04'0 0.0
2017-Sep-20 07:28N 40°39' W 074°04'0 0.0
2017-Sep-20 06:58N 40°39' W 074°04'0 0.0
2017-Sep-20 06:28N 40°39' W 074°04'0 0.0
2017-Sep-20 05:58N 40°39' W 074°04'0 0.0
2017-Sep-20 05:28N 40°39' W 074°04'0 0.1
2017-Sep-20 05:00N 40°39' W 074°04'0 0.0
2017-Sep-20 04:30N 40°39' W 074°04'0 0.0
2017-Sep-20 04:00N 40°39' W 074°04'4 8.6
2017-Sep-20 03:30N 40°42' W 074°01'4 8.5
2017-Sep-20 03:00N 40°39' W 074°04'0 0.0
2017-Sep-20 02:30N 40°39' W 074°04'4 8.5
2017-Sep-20 02:00N 40°42' W 074°01'4 8.6
2017-Sep-20 01:31N 40°39' W 074°04'0 0.0
2017-Sep-20 01:01N 40°39' W 074°04'0 0.1
2017-Sep-20 00:31N 40°39' W 074°04'4 8.5
2017-Sep-20 00:00N 40°42' W 074°01'4 8.7
2017-Sep-19 23:31N 40°39' W 074°04'2 4.8
2017-Sep-19 23:01N 40°41' W 074°03'0 0.3
2017-Sep-19 22:31N 40°41' W 074°02'1 1.3
2017-Sep-19 22:00N 40°40' W 074°03'2 3.1
2017-Sep-19 21:30N 40°41' W 074°02'2 4.8
2017-Sep-19 21:00N 40°39' W 074°03'3 5.1
2017-Sep-19 20:30N 40°41' W 074°02'3 1.1
2017-Sep-19 17:26N 40°39' W 074°04'4 9.0
2017-Sep-19 16:58N 40°42' W 074°01'4 9.2
2017-Sep-19 16:30N 40°39' W 074°04'0 0.1
2017-Sep-19 16:00N 40°39' W 074°04'4 6.9
2017-Sep-19 15:23N 40°42' W 074°01'411.3
2017-Sep-19 15:00N 40°39' W 074°04'4 8.6
2017-Sep-19 14:30N 40°42' W 074°01'4 8.6
2017-Sep-19 14:01N 40°39' W 074°04'2 4.2
2017-Sep-19 13:31N 40°40' W 074°03'0 0.3
2017-Sep-19 13:01N 40°40' W 074°03'0 0.7
2017-Sep-19 12:30N 40°40' W 074°03'1 2.7
2017-Sep-19 12:00N 40°41' W 074°02'3 5.5
2017-Sep-19 11:30N 40°39' W 074°04'4 7.7
2017-Sep-19 11:00N 40°42' W 074°01'4 6.5
2017-Sep-19 10:22N 40°39' W 074°04'4 8.2
2017-Sep-19 09:51N 40°42' W 074°01'412.1
2017-Sep-19 09:30N 40°39' W 074°04'0 0.2
2017-Sep-19 09:00N 40°39' W 074°04'0 0.0
2017-Sep-19 08:30N 40°39' W 074°04'0 0.1
2017-Sep-19 07:59N 40°39' W 074°04'0 0.0
2017-Sep-19 07:29N 40°39' W 074°04'0 0.0
2017-Sep-19 06:59N 40°39' W 074°04'0 0.0
2017-Sep-19 06:29N 40°39' W 074°04'0 0.0
2017-Sep-19 05:59N 40°39' W 074°04'0 0.0
2017-Sep-19 05:30N 40°39' W 074°04'0 0.0
2017-Sep-19 05:00N 40°39' W 074°04'0 0.2
2017-Sep-19 04:30N 40°39' W 074°04'0 0.0
2017-Sep-19 04:00N 40°39' W 074°04'4 8.6
2017-Sep-19 03:30N 40°42' W 074°01'4 8.6
2017-Sep-19 03:00N 40°39' W 074°04'0 0.1
2017-Sep-19 02:30N 40°39' W 074°04'4 8.6
2017-Sep-19 02:00N 40°42' W 074°01'4 8.6
2017-Sep-19 01:31N 40°39' W 074°04'0 0.1
2017-Sep-19 01:01N 40°39' W 074°04'0 0.0
2017-Sep-19 00:30N 40°39' W 074°04'4 8.6
2017-Sep-19 00:01N 40°42' W 074°01'4 8.6
2017-Sep-18 23:30N 40°39' W 074°04'4 8.6
2017-Sep-18 23:00N 40°42' W 074°01'4 8.5
2017-Sep-18 22:30N 40°39' W 074°04'3 6.5
2017-Sep-18 22:01N 40°41' W 074°02'1 1.6
2017-Sep-18 21:31N 40°41' W 074°02'2 3.4
2017-Sep-18 21:00N 40°39' W 074°04'3 6.1
2017-Sep-18 20:30N 40°42' W 074°01'4 7.7
2017-Sep-18 20:00N 40°39' W 074°04'0 0.0
2017-Sep-18 17:56N 40°39' W 074°04'4 8.3
2017-Sep-18 17:25N 40°42' W 074°01'410.6
2017-Sep-18 17:01N 40°39' W 074°04'0 0.1
2017-Sep-18 16:28N 40°39' W 074°04'1 1.6
2017-Sep-18 16:01N 40°38' W 074°04'1 1.3
2017-Sep-18 15:30N 40°39' W 074°04'0 0.1
2017-Sep-18 14:58N 40°39' W 074°04'0 0.0
2017-Sep-18 14:28N 40°39' W 074°04'0 0.0
2017-Sep-18 13:58N 40°39' W 074°04'0 0.0
2017-Sep-18 13:28N 40°39' W 074°04'0 0.0
2017-Sep-18 12:58N 40°39' W 074°04'0 0.0
2017-Sep-18 12:28N 40°39' W 074°04'0 0.0
2017-Sep-18 11:58N 40°39' W 074°04'1 2.2
2017-Sep-18 11:30N 40°39' W 074°03'3 6.4
2017-Sep-18 11:01N 40°42' W 074°01'4 5.4
2017-Sep-18 10:15N 40°39' W 074°04'0 1.9
2017-Sep-18 10:00N 40°38' W 074°04'0 0.8
2017-Sep-18 09:30N 40°39' W 074°04'0 0.0
2017-Sep-18 09:00N 40°39' W 074°04'0 0.0
2017-Sep-18 08:30N 40°39' W 074°04'0 0.1
2017-Sep-18 08:00N 40°39' W 074°04'0 0.0
2017-Sep-18 07:30N 40°39' W 074°04'0 0.0
2017-Sep-18 07:00N 40°39' W 074°04'0 0.0
2017-Sep-18 06:30N 40°39' W 074°04'0 0.0
2017-Sep-18 06:00N 40°39' W 074°04'0 0.0
2017-Sep-18 05:30N 40°39' W 074°04'0 0.0
2017-Sep-18 05:00N 40°39' W 074°04'0 0.0
2017-Sep-18 04:30N 40°39' W 074°04'4 8.7
2017-Sep-18 04:00N 40°42' W 074°01'4 8.6
2017-Sep-18 03:31N 40°39' W 074°04'4 8.6
2017-Sep-18 03:00N 40°42' W 074°01'4 8.7
2017-Sep-18 02:30N 40°39' W 074°04'4 8.6
2017-Sep-18 02:00N 40°42' W 074°01'4 8.6
2017-Sep-18 01:30N 40°39' W 074°04'4 8.6
2017-Sep-18 01:00N 40°42' W 074°01'4 8.6
2017-Sep-18 00:30N 40°39' W 074°04'4 8.6
2017-Sep-18 00:00N 40°42' W 074°01'4 8.7
2017-Sep-17 23:31N 40°39' W 074°04'0 0.0
2017-Sep-17 23:00N 40°39' W 074°04'4 8.7
2017-Sep-17 22:30N 40°42' W 074°01'4 8.7
2017-Sep-17 22:01N 40°39' W 074°04'0 0.0
2017-Sep-17 21:30N 40°39' W 074°04'4 8.7
2017-Sep-17 21:00N 40°42' W 074°01'4 8.5
2017-Sep-17 20:30N 40°39' W 074°04'0 0.0
2017-Sep-17 20:01N 40°39' W 074°04'4 8.5
2017-Sep-17 19:30N 40°42' W 074°01'4 8.6
2017-Sep-17 19:00N 40°39' W 074°04'0 0.0
2017-Sep-17 18:30N 40°39' W 074°04'4 8.6
2017-Sep-17 18:01N 40°42' W 074°01'4 8.5
2017-Sep-17 17:30N 40°39' W 074°04'0 0.1
2017-Sep-17 17:00N 40°39' W 074°04'4 8.7
2017-Sep-17 16:30N 40°42' W 074°01'4 8.6
2017-Sep-17 16:00N 40°39' W 074°04'0 0.0
2017-Sep-17 15:31N 40°39' W 074°04'4 8.6
2017-Sep-17 15:01N 40°42' W 074°01'4 8.6
2017-Sep-17 14:31N 40°39' W 074°04'4 8.6
2017-Sep-17 14:00N 40°42' W 074°01'4 8.6
2017-Sep-17 13:30N 40°39' W 074°04'4 8.6
2017-Sep-17 13:00N 40°42' W 074°01'4 8.5
2017-Sep-17 12:30N 40°39' W 074°04'4 8.6
2017-Sep-17 12:00N 40°42' W 074°01'4 8.6
2017-Sep-17 11:30N 40°39' W 074°04'0 0.0
2017-Sep-17 11:00N 40°39' W 074°04'0 0.1
2017-Sep-17 10:31N 40°39' W 074°04'0 0.0
2017-Sep-17 10:00N 40°39' W 074°04'0 0.0
2017-Sep-17 09:30N 40°39' W 074°04'0 0.0
2017-Sep-17 09:00N 40°39' W 074°04'0 0.0
2017-Sep-17 08:30N 40°39' W 074°04'0 0.0
2017-Sep-17 08:00N 40°39' W 074°04'0 0.0
2017-Sep-17 07:30N 40°39' W 074°04'0 0.0
2017-Sep-17 07:00N 40°39' W 074°04'0 0.0
2017-Sep-17 06:29N 40°39' W 074°04'0 0.0
2017-Sep-17 05:59N 40°39' W 074°04'0 0.0
2017-Sep-17 05:30N 40°39' W 074°04'0 0.0
2017-Sep-17 05:01N 40°39' W 074°04'0 0.0
2017-Sep-17 04:31N 40°39' W 074°04'0 0.0
2017-Sep-17 04:00N 40°39' W 074°04'4 8.7
2017-Sep-17 03:31N 40°42' W 074°01'4 8.5
2017-Sep-17 03:01N 40°39' W 074°04'4 8.5
2017-Sep-17 02:31N 40°42' W 074°01'4 8.6
2017-Sep-17 02:01N 40°39' W 074°04'4 8.6
2017-Sep-17 01:31N 40°42' W 074°01'4 8.6
2017-Sep-17 01:00N 40°39' W 074°04'4 8.6
2017-Sep-17 00:30N 40°42' W 074°01'4 8.6
2017-Sep-17 00:01N 40°39' W 074°04'0 0.3
2017-Sep-16 23:31N 40°39' W 074°04'0 0.1
2017-Sep-16 22:59N 40°39' W 074°04'0 0.0
2017-Sep-16 22:29N 40°39' W 074°04'0 0.0
2017-Sep-16 21:59N 40°39' W 074°04'0 0.0
2017-Sep-16 21:29N 40°39' W 074°04'0 0.0
2017-Sep-16 20:59N 40°39' W 074°04'0 0.0
2017-Sep-16 20:29N 40°39' W 074°04'0 0.0
2017-Sep-16 19:59N 40°39' W 074°04'0 0.0
2017-Sep-16 19:29N 40°39' W 074°04'0 0.0
2017-Sep-16 18:59N 40°39' W 074°04'0 0.0
2017-Sep-16 18:29N 40°39' W 074°04'0 0.0
2017-Sep-16 17:59N 40°39' W 074°04'0 0.0
2017-Sep-16 17:29N 40°39' W 074°04'0 0.0
2017-Sep-16 16:59N 40°39' W 074°04'0 0.0
2017-Sep-16 16:29N 40°39' W 074°04'0 0.0
2017-Sep-16 15:59N 40°39' W 074°04'0 0.0
2017-Sep-16 15:29N 40°39' W 074°04'0 0.0
2017-Sep-16 14:59N 40°39' W 074°04'0 0.0
2017-Sep-16 14:29N 40°39' W 074°04'0 0.0
2017-Sep-16 13:59N 40°39' W 074°04'0 0.0
2017-Sep-16 13:29N 40°39' W 074°04'0 0.0
2017-Sep-16 12:59N 40°39' W 074°04'0 0.0
2017-Sep-16 12:29N 40°39' W 074°04'0 0.0
2017-Sep-16 11:59N 40°39' W 074°04'0 0.0
2017-Sep-16 11:29N 40°39' W 074°04'0 0.0
2017-Sep-16 10:59N 40°39' W 074°04'0 0.0
2017-Sep-16 10:29N 40°39' W 074°04'0 0.0
2017-Sep-16 09:59N 40°39' W 074°04'0 0.0
2017-Sep-16 09:29N 40°39' W 074°04'0 0.0
2017-Sep-16 08:59N 40°39' W 074°04'0 0.0
2017-Sep-16 08:29N 40°39' W 074°04'0 0.0
2017-Sep-16 07:59N 40°39' W 074°04'0 0.0
2017-Sep-16 07:29N 40°39' W 074°04'0 0.0
2017-Sep-16 06:59N 40°39' W 074°04'0 0.0
2017-Sep-16 06:29N 40°39' W 074°04'0 0.0
2017-Sep-16 05:59N 40°39' W 074°04'0 0.0
2017-Sep-16 05:29N 40°39' W 074°04'0 0.0
2017-Sep-16 04:59N 40°39' W 074°04'0 0.3
2017-Sep-16 04:31N 40°39' W 074°04'0 0.0
2017-Sep-16 04:00N 40°39' W 074°04'4 8.6
2017-Sep-16 03:30N 40°42' W 074°01'4 8.6
2017-Sep-16 03:00N 40°39' W 074°04'0 0.0
2017-Sep-16 02:30N 40°39' W 074°04'4 8.6
2017-Sep-16 02:01N 40°42' W 074°01'4 8.5
2017-Sep-16 01:30N 40°39' W 074°04'0 0.0
2017-Sep-16 01:00N 40°39' W 074°04'0 0.0
2017-Sep-16 00:30N 40°39' W 074°04'4 8.7
2017-Sep-16 00:01N 40°42' W 074°01'4 8.6
2017-Sep-15 23:30N 40°39' W 074°04'3 7.0
2017-Sep-15 23:00N 40°42' W 074°02'2 4.8
2017-Sep-15 22:31N 40°39' W 074°03'2 3.7
2017-Sep-15 22:01N 40°41' W 074°02'0 0.7
2017-Sep-15 21:30N 40°41' W 074°02'2 4.1
2017-Sep-15 21:00N 40°40' W 074°03'3 5.9
2017-Sep-15 20:31N 40°42' W 074°01'4 1.4
2017-Sep-15 17:35N 40°39' W 074°04'0 0.2
2017-Sep-15 17:31N 40°39' W 074°04'4 8.6
2017-Sep-15 17:00N 40°42' W 074°01'4 8.7
2017-Sep-15 16:30N 40°39' W 074°04'4 8.7
2017-Sep-15 16:01N 40°42' W 074°01'4 8.6
2017-Sep-15 15:30N 40°39' W 074°04'0 0.0
2017-Sep-15 15:00N 40°39' W 074°04'0 0.0
2017-Sep-15 14:30N 40°39' W 074°04'0 0.0
2017-Sep-15 14:00N 40°39' W 074°04'2 4.6
2017-Sep-15 13:31N 40°41' W 074°03'0 0.5
2017-Sep-15 13:01N 40°41' W 074°02'0 1.0
2017-Sep-15 12:30N 40°40' W 074°03'1 1.5
2017-Sep-15 12:01N 40°41' W 074°02'2 4.8
2017-Sep-15 11:31N 40°39' W 074°04'4 7.1
2017-Sep-15 11:01N 40°42' W 074°01'4 7.7
2017-Sep-15 10:30N 40°39' W 074°04'0 0.0
2017-Sep-15 10:00N 40°39' W 074°04'0 0.0
2017-Sep-15 09:30N 40°39' W 074°04'0 0.0
2017-Sep-15 09:00N 40°39' W 074°04'0 0.0
2017-Sep-15 08:30N 40°39' W 074°04'0 0.0
2017-Sep-15 07:58N 40°39' W 074°04'0 0.0
2017-Sep-15 07:28N 40°39' W 074°04'0 0.0
2017-Sep-15 06:58N 40°39' W 074°04'0 0.0
2017-Sep-15 06:28N 40°39' W 074°04'0 0.0
2017-Sep-15 05:58N 40°39' W 074°04'0 0.0
2017-Sep-15 05:28N 40°39' W 074°04'0 0.1
2017-Sep-15 05:00N 40°39' W 074°04'0 0.0
2017-Sep-15 04:30N 40°39' W 074°04'0 0.1
2017-Sep-15 04:01N 40°39' W 074°04'4 8.6
2017-Sep-15 03:30N 40°42' W 074°01'4 8.5
2017-Sep-15 03:00N 40°39' W 074°04'0 0.0
2017-Sep-15 02:30N 40°39' W 074°04'4 8.6
2017-Sep-15 02:00N 40°42' W 074°01'4 8.6
2017-Sep-15 01:30N 40°39' W 074°04'0 0.0
2017-Sep-15 01:00N 40°39' W 074°04'0 0.1
2017-Sep-15 00:30N 40°39' W 074°04'4 8.7
2017-Sep-15 00:00N 40°42' W 074°01'4 8.7
2017-Sep-14 23:30N 40°39' W 074°04'1 2.1
2017-Sep-14 23:01N 40°39' W 074°03'2 4.0
2017-Sep-14 22:30N 40°41' W 074°02'2 3.3
2017-Sep-14 22:00N 40°40' W 074°03'2 3.7
2017-Sep-14 21:31N 40°41' W 074°02'2 4.1
2017-Sep-14 21:01N 40°40' W 074°03'2 4.9
2017-Sep-14 20:31N 40°42' W 074°01'4 7.4
2017-Sep-14 20:01N 40°39' W 074°04'0 0.0
2017-Sep-14 19:30N 40°39' W 074°04'0 0.0
2017-Sep-14 19:00N 40°39' W 074°04'0 0.0
2017-Sep-14 18:30N 40°39' W 074°04'0 0.0
2017-Sep-14 18:00N 40°39' W 074°04'0 0.0
2017-Sep-14 17:30N 40°39' W 074°04'0 0.0
2017-Sep-14 17:01N 40°39' W 074°04'0 0.0
2017-Sep-14 16:30N 40°39' W 074°04'4 6.8
2017-Sep-14 15:53N 40°42' W 074°01'411.5
2017-Sep-14 15:30N 40°39' W 074°04'0 0.1
2017-Sep-14 14:50N 40°39' W 074°04'412.7
2017-Sep-14 14:30N 40°42' W 074°01'4 8.6
2017-Sep-14 14:01N 40°39' W 074°04'3 6.0
2017-Sep-14 13:30N 40°41' W 074°02'1 2.8
2017-Sep-14 13:01N 40°40' W 074°03'2 3.2
2017-Sep-14 12:30N 40°41' W 074°02'0 0.8
2017-Sep-14 12:01N 40°41' W 074°02'1 1.5
2017-Sep-14 11:03N 40°42' W 074°01'0 6.9
2017-Sep-14 11:00N 40°42' W 074°01'4 7.8
2017-Sep-14 10:30N 40°39' W 074°04'0 0.0
2017-Sep-14 10:00N 40°39' W 074°04'0 0.0
2017-Sep-14 09:30N 40°39' W 074°04'0 0.0
2017-Sep-14 09:00N 40°39' W 074°04'0 0.0
2017-Sep-14 08:30N 40°39' W 074°04'0 0.1
2017-Sep-14 07:59N 40°39' W 074°04'0 0.0
2017-Sep-14 07:29N 40°39' W 074°04'0 0.0
2017-Sep-14 06:59N 40°39' W 074°04'0 0.0
2017-Sep-14 06:29N 40°39' W 074°04'0 0.0
2017-Sep-14 05:59N 40°39' W 074°04'0 0.0
2017-Sep-14 05:29N 40°39' W 074°04'0 0.1
2017-Sep-14 05:00N 40°39' W 074°04'0 0.0
2017-Sep-14 04:30N 40°39' W 074°04'0 0.0
2017-Sep-14 04:00N 40°39' W 074°04'0 0.0
2017-Sep-14 03:30N 40°39' W 074°04'0 0.0
2017-Sep-14 03:00N 40°39' W 074°04'0 0.0
2017-Sep-14 02:30N 40°39' W 074°04'4 8.6
2017-Sep-14 02:01N 40°42' W 074°01'4 8.5
2017-Sep-14 01:30N 40°39' W 074°04'0 0.0
2017-Sep-14 01:00N 40°39' W 074°04'0 0.0
2017-Sep-14 00:30N 40°39' W 074°04'4 8.6
2017-Sep-14 00:00N 40°42' W 074°01'4 8.6
2017-Sep-13 23:30N 40°39' W 074°04'1 2.4
2017-Sep-13 23:01N 40°40' W 074°03'1 2.9
2017-Sep-13 22:30N 40°41' W 074°02'1 2.0
2017-Sep-13 22:00N 40°40' W 074°03'2 3.8
2017-Sep-13 21:31N 40°42' W 074°02'3 6.3
2017-Sep-13 21:01N 40°39' W 074°04'4 7.4
2017-Sep-13 20:31N 40°42' W 074°01'4 8.2
2017-Sep-13 20:00N 40°39' W 074°04'0 0.0
2017-Sep-13 19:30N 40°39' W 074°04'0 0.0
2017-Sep-13 19:00N 40°39' W 074°04'0 0.0
2017-Sep-13 18:30N 40°39' W 074°04'0 0.0
2017-Sep-13 18:00N 40°39' W 074°04'0 0.0
2017-Sep-13 17:30N 40°39' W 074°04'4 6.8
2017-Sep-13 16:53N 40°42' W 074°01'411.5
2017-Sep-13 16:30N 40°39' W 074°04'4 8.6
2017-Sep-13 16:00N 40°42' W 074°01'4 8.7
2017-Sep-13 15:30N 40°39' W 074°04'0 0.0
2017-Sep-13 14:57N 40°39' W 074°04'4 8.3
2017-Sep-13 14:25N 40°42' W 074°01'410.4
2017-Sep-13 14:01N 40°39' W 074°04'2 4.4
2017-Sep-13 13:31N 40°40' W 074°03'1 1.4
2017-Sep-13 13:00N 40°41' W 074°02'2 3.2
2017-Sep-13 12:31N 40°40' W 074°03'2 3.1
2017-Sep-13 12:00N 40°41' W 074°02'3 5.1
2017-Sep-13 11:31N 40°39' W 074°04'3 6.7
2017-Sep-13 11:01N 40°42' W 074°01'4 7.3
2017-Sep-13 10:30N 40°39' W 074°04'0 0.0
2017-Sep-13 10:00N 40°39' W 074°04'0 0.0
2017-Sep-13 09:30N 40°39' W 074°04'0 0.0
2017-Sep-13 09:00N 40°39' W 074°04'0 0.0
2017-Sep-13 08:30N 40°39' W 074°04'0 0.0
2017-Sep-13 08:00N 40°39' W 074°04'0 0.0
2017-Sep-13 07:30N 40°39' W 074°04'0 0.0
2017-Sep-13 07:00N 40°39' W 074°04'0 0.0
2017-Sep-13 06:30N 40°39' W 074°04'0 0.0
2017-Sep-13 06:00N 40°39' W 074°04'0 0.0
2017-Sep-13 05:30N 40°39' W 074°04'0 0.0
2017-Sep-13 05:00N 40°39' W 074°04'0 0.0
2017-Sep-13 04:30N 40°39' W 074°04'0 0.0
2017-Sep-13 04:00N 40°39' W 074°04'4 8.6
2017-Sep-13 03:30N 40°42' W 074°01'4 8.6
2017-Sep-13 03:00N 40°39' W 074°04'0 0.0
2017-Sep-13 02:30N 40°39' W 074°04'4 8.6
2017-Sep-13 02:01N 40°42' W 074°01'4 8.6
2017-Sep-13 01:31N 40°39' W 074°04'0 0.0
2017-Sep-13 01:00N 40°39' W 074°04'0 0.0
2017-Sep-13 00:30N 40°39' W 074°04'4 8.6
2017-Sep-13 00:00N 40°42' W 074°01'4 8.6
2017-Sep-12 23:31N 40°39' W 074°04'2 4.1
2017-Sep-12 23:01N 40°40' W 074°03'1 1.3
2017-Sep-12 22:30N 40°41' W 074°02'1 1.7
2017-Sep-12 22:01N 40°40' W 074°03'2 3.1
2017-Sep-12 21:31N 40°41' W 074°02'3 6.1
2017-Sep-12 21:01N 40°39' W 074°04'4 7.6
2017-Sep-12 20:31N 40°42' W 074°01'4 8.3
2017-Sep-12 20:01N 40°39' W 074°04'0 0.2
2017-Sep-12 19:30N 40°39' W 074°04'0 0.0
2017-Sep-12 19:00N 40°39' W 074°04'0 0.0
2017-Sep-12 18:30N 40°39' W 074°04'0 0.0
2017-Sep-12 18:00N 40°39' W 074°04'0 0.0
2017-Sep-12 17:30N 40°39' W 074°04'0 0.0
2017-Sep-12 17:00N 40°39' W 074°04'0 0.0
2017-Sep-12 16:30N 40°39' W 074°04'0 0.1
2017-Sep-12 16:00N 40°39' W 074°04'4 8.7
2017-Sep-12 15:30N 40°42' W 074°01'4 8.5
2017-Sep-12 15:00N 40°39' W 074°04'4 6.9
2017-Sep-12 14:23N 40°42' W 074°01'411.2
2017-Sep-12 14:00N 40°39' W 074°04'2 3.8
2017-Sep-12 13:30N 40°40' W 074°03'1 1.6
2017-Sep-12 13:01N 40°41' W 074°02'1 1.7
2017-Sep-12 12:31N 40°40' W 074°03'1 1.6
2017-Sep-12 12:00N 40°41' W 074°02'2 3.1
2017-Sep-12 11:31N 40°40' W 074°03'2 4.1
2017-Sep-12 11:00N 40°41' W 074°02'3 6.5
2017-Sep-12 10:30N 40°39' W 074°04'0 0.7
2017-Sep-12 10:00N 40°38' W 074°04'0 0.9
2017-Sep-12 09:31N 40°39' W 074°04'0 0.0
2017-Sep-12 09:01N 40°39' W 074°04'0 0.0
2017-Sep-12 08:31N 40°39' W 074°04'0 0.1
2017-Sep-12 08:00N 40°39' W 074°04'0 0.0
2017-Sep-12 07:30N 40°39' W 074°04'0 0.0
2017-Sep-12 07:00N 40°39' W 074°04'0 0.0
2017-Sep-12 06:30N 40°39' W 074°04'0 0.0
2017-Sep-12 06:00N 40°39' W 074°04'0 0.0
2017-Sep-12 05:30N 40°39' W 074°04'0 0.0
2017-Sep-12 05:00N 40°39' W 074°04'0 0.0
2017-Sep-12 04:30N 40°39' W 074°04'0 0.0
2017-Sep-12 04:00N 40°39' W 074°04'4 8.6
2017-Sep-12 03:31N 40°42' W 074°01'4 8.6
2017-Sep-12 03:01N 40°39' W 074°04'0 0.0
2017-Sep-12 02:31N 40°39' W 074°04'  
Track history (hours):
 
Tides and Currents Weather Stations Pressure Air Temp Water Temp Dewpoint Dewpoint Depression Visibility Wind Speed Wind Dir Waves Ship Positions

Spirit Of America

Owner: CITY OF NEW YORK, Brooklyn, NY. More information available from US FCC via Universal Licensing System and Coast Guard Vessel Documentation Center.

Last reported at 2017-Sep-22 02:00 UTC. Time now 2017-Sep-22 18:57 UTC.
Position N 40°42' W 074°01'.

Length 104 m; draft 4 m.

Type: Passenger vessel. MMSI: 366902394.

Date/timePositionNaut miles runAvg speedWind from/ knotsBaromVisibWave heightAir tempDewpointWater temp
2017-Sep-22 02:00N 40°42' W 074°01'4 8.6
2017-Sep-22 01:30N 40°39' W 074°04'0 0.0
2017-Sep-22 01:00N 40°39' W 074°04'0 0.0
2017-Sep-22 00:30N 40°39' W 074°04'4 8.6
2017-Sep-22 00:00N 40°42' W 074°01'4 8.6
2017-Sep-21 23:30N 40°39' W 074°04'2 4.2
2017-Sep-21 23:00N 40°40' W 074°03'0 0.4
2017-Sep-21 22:31N 40°40' W 074°02'0 0.4
2017-Sep-21 22:00N 40°40' W 074°03'2 2.7
2017-Sep-21 21:13N 40°39' W 074°04'0 0.6
2017-Sep-21 21:00N 40°39' W 074°04'4 7.3
2017-Sep-21 20:30N 40°42' W 074°01'4 7.2
2017-Sep-21 19:58N 40°39' W 074°04'0 0.0
2017-Sep-21 19:28N 40°39' W 074°04'0 0.0
2017-Sep-21 18:58N 40°39' W 074°04'0 0.0
2017-Sep-21 18:28N 40°39' W 074°04'0 0.0
2017-Sep-21 17:58N 40°39' W 074°04'0 0.1
2017-Sep-21 17:30N 40°39' W 074°04'4 8.1
2017-Sep-21 16:58N 40°42' W 074°01'4 7.4
2017-Sep-21 16:23N 40°39' W 074°04'411.1
2017-Sep-21 16:01N 40°42' W 074°01'4 8.6
2017-Sep-21 15:30N 40°39' W 074°04'0 0.1
2017-Sep-21 15:00N 40°39' W 074°04'0 0.0
2017-Sep-21 14:30N 40°39' W 074°04'0 0.0
2017-Sep-21 14:01N 40°39' W 074°04'2 4.2
2017-Sep-21 13:30N 40°40' W 074°03'0 0.3
2017-Sep-21 13:01N 40°40' W 074°02'0 0.5
2017-Sep-21 12:31N 40°40' W 074°03'1 2.4
2017-Sep-21 12:00N 40°41' W 074°02'3 5.9
2017-Sep-21 11:31N 40°39' W 074°04'4 7.7
2017-Sep-21 11:01N 40°42' W 074°01'4 8.2
2017-Sep-21 10:30N 40°39' W 074°04'0 0.0
2017-Sep-21 10:00N 40°39' W 074°04'0 0.0
2017-Sep-21 09:30N 40°39' W 074°04'0 0.0
2017-Sep-21 09:00N 40°39' W 074°04'0 0.0
2017-Sep-21 08:30N 40°39' W 074°04'0 0.1
2017-Sep-21 07:59N 40°39' W 074°04'0 0.0
2017-Sep-21 07:29N 40°39' W 074°04'0 0.0
2017-Sep-21 06:59N 40°39' W 074°04'0 0.0
2017-Sep-21 06:29N 40°39' W 074°04'0 0.0
2017-Sep-21 05:59N 40°39' W 074°04'0 0.0
2017-Sep-21 05:28N 40°39' W 074°04'0 0.1
2017-Sep-21 05:00N 40°39' W 074°04'0 0.0
2017-Sep-21 04:30N 40°39' W 074°04'0 0.0
2017-Sep-21 04:00N 40°39' W 074°04'4 8.6
2017-Sep-21 03:31N 40°42' W 074°01'4 8.5
2017-Sep-21 03:01N 40°39' W 074°04'0 0.0
2017-Sep-21 02:31N 40°39' W 074°04'4 8.5
2017-Sep-21 02:00N 40°42' W 074°01'4 8.6
2017-Sep-21 01:31N 40°39' W 074°04'0 0.1
2017-Sep-21 01:00N 40°39' W 074°04'0 0.0
2017-Sep-21 00:30N 40°39' W 074°04'4 8.6
2017-Sep-21 00:01N 40°42' W 074°01'4 8.6
2017-Sep-20 23:31N 40°39' W 074°04'2 4.2
2017-Sep-20 23:01N 40°40' W 074°03'0 0.3
2017-Sep-20 22:30N 40°40' W 074°03'1 1.4
2017-Sep-20 22:01N 40°41' W 074°02'0 0.6
2017-Sep-20 21:30N 40°41' W 074°02'2 4.0
2017-Sep-20 21:01N 40°39' W 074°03'2 5.0
2017-Sep-20 20:31N 40°41' W 074°02'3 0.6
2017-Sep-20 14:53N 40°39' W 074°04'0 0.1
2017-Sep-20 14:01N 40°39' W 074°04'2 3.7
2017-Sep-20 13:31N 40°40' W 074°03'0 1.0
2017-Sep-20 13:01N 40°40' W 074°02'1 1.1
2017-Sep-20 12:30N 40°40' W 074°03'1 2.3
2017-Sep-20 12:01N 40°41' W 074°02'2 5.0
2017-Sep-20 11:30N 40°39' W 074°04'4 7.2
2017-Sep-20 11:01N 40°42' W 074°01'4 8.0
2017-Sep-20 10:30N 40°39' W 074°04'1 1.2
2017-Sep-20 10:01N 40°38' W 074°04'0 0.4
2017-Sep-20 09:30N 40°38' W 074°04'0 0.6
2017-Sep-20 09:00N 40°39' W 074°04'0 0.0
2017-Sep-20 08:30N 40°39' W 074°04'0 0.1
2017-Sep-20 07:58N 40°39' W 074°04'0 0.0
2017-Sep-20 07:28N 40°39' W 074°04'0 0.0
2017-Sep-20 06:58N 40°39' W 074°04'0 0.0
2017-Sep-20 06:28N 40°39' W 074°04'0 0.0
2017-Sep-20 05:58N 40°39' W 074°04'0 0.0
2017-Sep-20 05:28N 40°39' W 074°04'0 0.1
2017-Sep-20 05:00N 40°39' W 074°04'0 0.0
2017-Sep-20 04:30N 40°39' W 074°04'0 0.0
2017-Sep-20 04:00N 40°39' W 074°04'4 8.6
2017-Sep-20 03:30N 40°42' W 074°01'4 8.5
2017-Sep-20 03:00N 40°39' W 074°04'0 0.0
2017-Sep-20 02:30N 40°39' W 074°04'4 8.5
2017-Sep-20 02:00N 40°42' W 074°01'4 8.6
2017-Sep-20 01:31N 40°39' W 074°04'0 0.0
2017-Sep-20 01:01N 40°39' W 074°04'0 0.1
2017-Sep-20 00:31N 40°39' W 074°04'4 8.5
2017-Sep-20 00:00N 40°42' W 074°01'4 8.7
2017-Sep-19 23:31N 40°39' W 074°04'2 4.8
2017-Sep-19 23:01N 40°41' W 074°03'0 0.3
2017-Sep-19 22:31N 40°41' W 074°02'1 1.3
2017-Sep-19 22:00N 40°40' W 074°03'2 3.1
2017-Sep-19 21:30N 40°41' W 074°02'2 4.8
2017-Sep-19 21:00N 40°39' W 074°03'3 5.1
2017-Sep-19 20:30N 40°41' W 074°02'3 1.1
2017-Sep-19 17:26N 40°39' W 074°04'4 9.0
2017-Sep-19 16:58N 40°42' W 074°01'4 9.2
2017-Sep-19 16:30N 40°39' W 074°04'0 0.1
2017-Sep-19 16:00N 40°39' W 074°04'4 6.9
2017-Sep-19 15:23N 40°42' W 074°01'411.3
2017-Sep-19 15:00N 40°39' W 074°04'4 8.6
2017-Sep-19 14:30N 40°42' W 074°01'4 8.6
2017-Sep-19 14:01N 40°39' W 074°04'2 4.2
2017-Sep-19 13:31N 40°40' W 074°03'0 0.3
2017-Sep-19 13:01N 40°40' W 074°03'0 0.7
2017-Sep-19 12:30N 40°40' W 074°03'1 2.7
2017-Sep-19 12:00N 40°41' W 074°02'3 5.5
2017-Sep-19 11:30N 40°39' W 074°04'4 7.7
2017-Sep-19 11:00N 40°42' W 074°01'4 6.5
2017-Sep-19 10:22N 40°39' W 074°04'4 8.2
2017-Sep-19 09:51N 40°42' W 074°01'412.1
2017-Sep-19 09:30N 40°39' W 074°04'0 0.2
2017-Sep-19 09:00N 40°39' W 074°04'0 0.0
2017-Sep-19 08:30N 40°39' W 074°04'0 0.1
2017-Sep-19 07:59N 40°39' W 074°04'0 0.0
2017-Sep-19 07:29N 40°39' W 074°04'0 0.0
2017-Sep-19 06:59N 40°39' W 074°04'0 0.0
2017-Sep-19 06:29N 40°39' W 074°04'0 0.0
2017-Sep-19 05:59N 40°39' W 074°04'0 0.0
2017-Sep-19 05:30N 40°39' W 074°04'0 0.0
2017-Sep-19 05:00N 40°39' W 074°04'0 0.2
2017-Sep-19 04:30N 40°39' W 074°04'0 0.0
2017-Sep-19 04:00N 40°39' W 074°04'4 8.6
2017-Sep-19 03:30N 40°42' W 074°01'4 8.6
2017-Sep-19 03:00N 40°39' W 074°04'0 0.1
2017-Sep-19 02:30N 40°39' W 074°04'4 8.6
2017-Sep-19 02:00N 40°42' W 074°01'4 8.6
2017-Sep-19 01:31N 40°39' W 074°04'0 0.1
2017-Sep-19 01:01N 40°39' W 074°04'0 0.0
2017-Sep-19 00:30N 40°39' W 074°04'4 8.6
2017-Sep-19 00:01N 40°42' W 074°01'4 8.6
2017-Sep-18 23:30N 40°39' W 074°04'4 8.6
2017-Sep-18 23:00N 40°42' W 074°01'4 8.5
2017-Sep-18 22:30N 40°39' W 074°04'3 6.5
2017-Sep-18 22:01N 40°41' W 074°02'1 1.6
2017-Sep-18 21:31N 40°41' W 074°02'2 3.4
2017-Sep-18 21:00N 40°39' W 074°04'3 6.1
2017-Sep-18 20:30N 40°42' W 074°01'4 7.7
2017-Sep-18 20:00N 40°39' W 074°04'0 0.0
2017-Sep-18 17:56N 40°39' W 074°04'4 8.3
2017-Sep-18 17:25N 40°42' W 074°01'410.6
2017-Sep-18 17:01N 40°39' W 074°04'0 0.1
2017-Sep-18 16:28N 40°39' W 074°04'1 1.6
2017-Sep-18 16:01N 40°38' W 074°04'1 1.3
2017-Sep-18 15:30N 40°39' W 074°04'0 0.1
2017-Sep-18 14:58N 40°39' W 074°04'0 0.0
2017-Sep-18 14:28N 40°39' W 074°04'0 0.0
2017-Sep-18 13:58N 40°39' W 074°04'0 0.0
2017-Sep-18 13:28N 40°39' W 074°04'0 0.0
2017-Sep-18 12:58N 40°39' W 074°04'0 0.0
2017-Sep-18 12:28N 40°39' W 074°04'0 0.0
2017-Sep-18 11:58N 40°39' W 074°04'1 2.2
2017-Sep-18 11:30N 40°39' W 074°03'3 6.4
2017-Sep-18 11:01N 40°42' W 074°01'4 5.4
2017-Sep-18 10:15N 40°39' W 074°04'0 1.9
2017-Sep-18 10:00N 40°38' W 074°04'0 0.8
2017-Sep-18 09:30N 40°39' W 074°04'0 0.0
2017-Sep-18 09:00N 40°39' W 074°04'0 0.0
2017-Sep-18 08:30N 40°39' W 074°04'0 0.1
2017-Sep-18 08:00N 40°39' W 074°04'0 0.0
2017-Sep-18 07:30N 40°39' W 074°04'0 0.0
2017-Sep-18 07:00N 40°39' W 074°04'0 0.0
2017-Sep-18 06:30N 40°39' W 074°04'0 0.0
2017-Sep-18 06:00N 40°39' W 074°04'0 0.0
2017-Sep-18 05:30N 40°39' W 074°04'0 0.0
2017-Sep-18 05:00N 40°39' W 074°04'0 0.0
2017-Sep-18 04:30N 40°39' W 074°04'4 8.7
2017-Sep-18 04:00N 40°42' W 074°01'4 8.6
2017-Sep-18 03:31N 40°39' W 074°04'4 8.6
2017-Sep-18 03:00N 40°42' W 074°01'4 8.7
2017-Sep-18 02:30N 40°39' W 074°04'4 8.6
2017-Sep-18 02:00N 40°42' W 074°01'4 8.6
2017-Sep-18 01:30N 40°39' W 074°04'4 8.6
2017-Sep-18 01:00N 40°42' W 074°01'4 8.6
2017-Sep-18 00:30N 40°39' W 074°04'4 8.6
2017-Sep-18 00:00N 40°42' W 074°01'4 8.7
2017-Sep-17 23:31N 40°39' W 074°04'0 0.0
2017-Sep-17 23:00N 40°39' W 074°04'4 8.7
2017-Sep-17 22:30N 40°42' W 074°01'4 8.7
2017-Sep-17 22:01N 40°39' W 074°04'0 0.0
2017-Sep-17 21:30N 40°39' W 074°04'4 8.7
2017-Sep-17 21:00N 40°42' W 074°01'4 8.5
2017-Sep-17 20:30N 40°39' W 074°04'0 0.0
2017-Sep-17 20:01N 40°39' W 074°04'4 8.5
2017-Sep-17 19:30N 40°42' W 074°01'4 8.6
2017-Sep-17 19:00N 40°39' W 074°04'0 0.0
2017-Sep-17 18:30N 40°39' W 074°04'4 8.6
2017-Sep-17 18:01N 40°42' W 074°01'4 8.5
2017-Sep-17 17:30N 40°39' W 074°04'0 0.1
2017-Sep-17 17:00N 40°39' W 074°04'4 8.7
2017-Sep-17 16:30N 40°42' W 074°01'4 8.6
2017-Sep-17 16:00N 40°39' W 074°04'0 0.0
2017-Sep-17 15:31N 40°39' W 074°04'4 8.6
2017-Sep-17 15:01N 40°42' W 074°01'4 8.6
2017-Sep-17 14:31N 40°39' W 074°04'4 8.6
2017-Sep-17 14:00N 40°42' W 074°01'4 8.6
2017-Sep-17 13:30N 40°39' W 074°04'4 8.6
2017-Sep-17 13:00N 40°42' W 074°01'4 8.5
2017-Sep-17 12:30N 40°39' W 074°04'4 8.6
2017-Sep-17 12:00N 40°42' W 074°01'4 8.6
2017-Sep-17 11:30N 40°39' W 074°04'0 0.0
2017-Sep-17 11:00N 40°39' W 074°04'0 0.1
2017-Sep-17 10:31N 40°39' W 074°04'0 0.0
2017-Sep-17 10:00N 40°39' W 074°04'0 0.0
2017-Sep-17 09:30N 40°39' W 074°04'0 0.0
2017-Sep-17 09:00N 40°39' W 074°04'0 0.0
2017-Sep-17 08:30N 40°39' W 074°04'0 0.0
2017-Sep-17 08:00N 40°39' W 074°04'0 0.0
2017-Sep-17 07:30N 40°39' W 074°04'0 0.0
2017-Sep-17 07:00N 40°39' W 074°04'0 0.0
2017-Sep-17 06:29N 40°39' W 074°04'0 0.0
2017-Sep-17 05:59N 40°39' W 074°04'0 0.0
2017-Sep-17 05:30N 40°39' W 074°04'0 0.0
2017-Sep-17 05:01N 40°39' W 074°04'0 0.0
2017-Sep-17 04:31N 40°39' W 074°04'0 0.0
2017-Sep-17 04:00N 40°39' W 074°04'4 8.7
2017-Sep-17 03:31N 40°42' W 074°01'4 8.5
2017-Sep-17 03:01N 40°39' W 074°04'4 8.5
2017-Sep-17 02:31N 40°42' W 074°01'4 8.6
2017-Sep-17 02:01N 40°39' W 074°04'4 8.6
2017-Sep-17 01:31N 40°42' W 074°01'4 8.6
2017-Sep-17 01:00N 40°39' W 074°04'4 8.6
2017-Sep-17 00:30N 40°42' W 074°01'4 8.6
2017-Sep-17 00:01N 40°39' W 074°04'0 0.3
2017-Sep-16 23:31N 40°39' W 074°04'0 0.1
2017-Sep-16 22:59N 40°39' W 074°04'0 0.0
2017-Sep-16 22:29N 40°39' W 074°04'0 0.0
2017-Sep-16 21:59N 40°39' W 074°04'0 0.0
2017-Sep-16 21:29N 40°39' W 074°04'0 0.0
2017-Sep-16 20:59N 40°39' W 074°04'0 0.0
2017-Sep-16 20:29N 40°39' W 074°04'0 0.0
2017-Sep-16 19:59N 40°39' W 074°04'0 0.0
2017-Sep-16 19:29N 40°39' W 074°04'0 0.0
2017-Sep-16 18:59N 40°39' W 074°04'0 0.0
2017-Sep-16 18:29N 40°39' W 074°04'0 0.0
2017-Sep-16 17:59N 40°39' W 074°04'0 0.0
2017-Sep-16 17:29N 40°39' W 074°04'0 0.0
2017-Sep-16 16:59N 40°39' W 074°04'0 0.0
2017-Sep-16 16:29N 40°39' W 074°04'0 0.0
2017-Sep-16 15:59N 40°39' W 074°04'0 0.0
2017-Sep-16 15:29N 40°39' W 074°04'0 0.0
2017-Sep-16 14:59N 40°39' W 074°04'0 0.0
2017-Sep-16 14:29N 40°39' W 074°04'0 0.0
2017-Sep-16 13:59N 40°39' W 074°04'0 0.0
2017-Sep-16 13:29N 40°39' W 074°04'0 0.0
2017-Sep-16 12:59N 40°39' W 074°04'0 0.0
2017-Sep-16 12:29N 40°39' W 074°04'0 0.0
2017-Sep-16 11:59N 40°39' W 074°04'0 0.0
2017-Sep-16 11:29N 40°39' W 074°04'0 0.0
2017-Sep-16 10:59N 40°39' W 074°04'0 0.0
2017-Sep-16 10:29N 40°39' W 074°04'0 0.0
2017-Sep-16 09:59N 40°39' W 074°04'0 0.0
2017-Sep-16 09:29N 40°39' W 074°04'0 0.0
2017-Sep-16 08:59N 40°39' W 074°04'0 0.0
2017-Sep-16 08:29N 40°39' W 074°04'0 0.0
2017-Sep-16 07:59N 40°39' W 074°04'0 0.0
2017-Sep-16 07:29N 40°39' W 074°04'0 0.0
2017-Sep-16 06:59N 40°39' W 074°04'0 0.0
2017-Sep-16 06:29N 40°39' W 074°04'0 0.0
2017-Sep-16 05:59N 40°39' W 074°04'0 0.0
2017-Sep-16 05:29N 40°39' W 074°04'0 0.0
2017-Sep-16 04:59N 40°39' W 074°04'0 0.3
2017-Sep-16 04:31N 40°39' W 074°04'0 0.0
2017-Sep-16 04:00N 40°39' W 074°04'4 8.6
2017-Sep-16 03:30N 40°42' W 074°01'4 8.6
2017-Sep-16 03:00N 40°39' W 074°04'0 0.0
2017-Sep-16 02:30N 40°39' W 074°04'4 8.6
2017-Sep-16 02:01N 40°42' W 074°01'4 8.5
2017-Sep-16 01:30N 40°39' W 074°04'0 0.0
2017-Sep-16 01:00N 40°39' W 074°04'0 0.0
2017-Sep-16 00:30N 40°39' W 074°04'4 8.7
2017-Sep-16 00:01N 40°42' W 074°01'4 8.6
2017-Sep-15 23:30N 40°39' W 074°04'3 7.0
2017-Sep-15 23:00N 40°42' W 074°02'2 4.8
2017-Sep-15 22:31N 40°39' W 074°03'2 3.7
2017-Sep-15 22:01N 40°41' W 074°02'0 0.7
2017-Sep-15 21:30N 40°41' W 074°02'2 4.1
2017-Sep-15 21:00N 40°40' W 074°03'3 5.9
2017-Sep-15 20:31N 40°42' W 074°01'4 1.4
2017-Sep-15 17:35N 40°39' W 074°04'0 0.2
2017-Sep-15 17:31N 40°39' W 074°04'4 8.6
2017-Sep-15 17:00N 40°42' W 074°01'4 8.7
2017-Sep-15 16:30N 40°39' W 074°04'4 8.7
2017-Sep-15 16:01N 40°42' W 074°01'4 8.6
2017-Sep-15 15:30N 40°39' W 074°04'0 0.0
2017-Sep-15 15:00N 40°39' W 074°04'0 0.0
2017-Sep-15 14:30N 40°39' W 074°04'0 0.0
2017-Sep-15 14:00N 40°39' W 074°04'2 4.6
2017-Sep-15 13:31N 40°41' W 074°03'0 0.5
2017-Sep-15 13:01N 40°41' W 074°02'0 1.0
2017-Sep-15 12:30N 40°40' W 074°03'1 1.5
2017-Sep-15 12:01N 40°41' W 074°02'2 4.8
2017-Sep-15 11:31N 40°39' W 074°04'4 7.1
2017-Sep-15 11:01N 40°42' W 074°01'4 7.7
2017-Sep-15 10:30N 40°39' W 074°04'0 0.0
2017-Sep-15 10:00N 40°39' W 074°04'0 0.0
2017-Sep-15 09:30N 40°39' W 074°04'0 0.0
2017-Sep-15 09:00N 40°39' W 074°04'0 0.0
2017-Sep-15 08:30N 40°39' W 074°04'0 0.0
2017-Sep-15 07:58N 40°39' W 074°04'0 0.0
2017-Sep-15 07:28N 40°39' W 074°04'0 0.0
2017-Sep-15 06:58N 40°39' W 074°04'0 0.0
2017-Sep-15 06:28N 40°39' W 074°04'0 0.0
2017-Sep-15 05:58N 40°39' W 074°04'0 0.0
2017-Sep-15 05:28N 40°39' W 074°04'0 0.1
2017-Sep-15 05:00N 40°39' W 074°04'0 0.0
2017-Sep-15 04:30N 40°39' W 074°04'0 0.1
2017-Sep-15 04:01N 40°39' W 074°04'4 8.6
2017-Sep-15 03:30N 40°42' W 074°01'4 8.5
2017-Sep-15 03:00N 40°39' W 074°04'0 0.0
2017-Sep-15 02:30N 40°39' W 074°04'4 8.6
2017-Sep-15 02:00N 40°42' W 074°01'4 8.6
2017-Sep-15 01:30N 40°39' W 074°04'0 0.0
2017-Sep-15 01:00N 40°39' W 074°04'0 0.1
2017-Sep-15 00:30N 40°39' W 074°04'4 8.7
2017-Sep-15 00:00N 40°42' W 074°01'4 8.7
2017-Sep-14 23:30N 40°39' W 074°04'1 2.1
2017-Sep-14 23:01N 40°39' W 074°03'2 4.0
2017-Sep-14 22:30N 40°41' W 074°02'2 3.3
2017-Sep-14 22:00N 40°40' W 074°03'2 3.7
2017-Sep-14 21:31N 40°41' W 074°02'2 4.1
2017-Sep-14 21:01N 40°40' W 074°03'2 4.9
2017-Sep-14 20:31N 40°42' W 074°01'4 7.4
2017-Sep-14 20:01N 40°39' W 074°04'0 0.0
2017-Sep-14 19:30N 40°39' W 074°04'0 0.0
2017-Sep-14 19:00N 40°39' W 074°04'0 0.0
2017-Sep-14 18:30N 40°39' W 074°04'0 0.0
2017-Sep-14 18:00N 40°39' W 074°04'0 0.0
2017-Sep-14 17:30N 40°39' W 074°04'0 0.0
2017-Sep-14 17:01N 40°39' W 074°04'0 0.0
2017-Sep-14 16:30N 40°39' W 074°04'4 6.8
2017-Sep-14 15:53N 40°42' W 074°01'411.5
2017-Sep-14 15:30N 40°39' W 074°04'0 0.1
2017-Sep-14 14:50N 40°39' W 074°04'412.7
2017-Sep-14 14:30N 40°42' W 074°01'4 8.6
2017-Sep-14 14:01N 40°39' W 074°04'3 6.0
2017-Sep-14 13:30N 40°41' W 074°02'1 2.8
2017-Sep-14 13:01N 40°40' W 074°03'2 3.2
2017-Sep-14 12:30N 40°41' W 074°02'0 0.8
2017-Sep-14 12:01N 40°41' W 074°02'1 1.5
2017-Sep-14 11:03N 40°42' W 074°01'0 6.9
2017-Sep-14 11:00N 40°42' W 074°01'4 7.8
2017-Sep-14 10:30N 40°39' W 074°04'0 0.0
2017-Sep-14 10:00N 40°39' W 074°04'0 0.0
2017-Sep-14 09:30N 40°39' W 074°04'0 0.0
2017-Sep-14 09:00N 40°39' W 074°04'0 0.0
2017-Sep-14 08:30N 40°39' W 074°04'0 0.1
2017-Sep-14 07:59N 40°39' W 074°04'0 0.0
2017-Sep-14 07:29N 40°39' W 074°04'0 0.0
2017-Sep-14 06:59N 40°39' W 074°04'0 0.0
2017-Sep-14 06:29N 40°39' W 074°04'0 0.0
2017-Sep-14 05:59N 40°39' W 074°04'0 0.0
2017-Sep-14 05:29N 40°39' W 074°04'0 0.1
2017-Sep-14 05:00N 40°39' W 074°04'0 0.0
2017-Sep-14 04:30N 40°39' W 074°04'0 0.0
2017-Sep-14 04:00N 40°39' W 074°04'0 0.0
2017-Sep-14 03:30N 40°39' W 074°04'0 0.0
2017-Sep-14 03:00N 40°39' W 074°04'0 0.0
2017-Sep-14 02:30N 40°39' W 074°04'4 8.6
2017-Sep-14 02:01N 40°42' W 074°01'4 8.5
2017-Sep-14 01:30N 40°39' W 074°04'0 0.0
2017-Sep-14 01:00N 40°39' W 074°04'0 0.0
2017-Sep-14 00:30N 40°39' W 074°04'4 8.6
2017-Sep-14 00:00N 40°42' W 074°01'4 8.6
2017-Sep-13 23:30N 40°39' W 074°04'1 2.4
2017-Sep-13 23:01N 40°40' W 074°03'1 2.9
2017-Sep-13 22:30N 40°41' W 074°02'1 2.0
2017-Sep-13 22:00N 40°40' W 074°03'2 3.8
2017-Sep-13 21:31N 40°42' W 074°02'3 6.3
2017-Sep-13 21:01N 40°39' W 074°04'4 7.4
2017-Sep-13 20:31N 40°42' W 074°01'4 8.2
2017-Sep-13 20:00N 40°39' W 074°04'0 0.0
2017-Sep-13 19:30N 40°39' W 074°04'0 0.0
2017-Sep-13 19:00N 40°39' W 074°04'0 0.0
2017-Sep-13 18:30N 40°39' W 074°04'0 0.0
2017-Sep-13 18:00N 40°39' W 074°04'0 0.0
2017-Sep-13 17:30N 40°39' W 074°04'4 6.8
2017-Sep-13 16:53N 40°42' W 074°01'411.5
2017-Sep-13 16:30N 40°39' W 074°04'4 8.6
2017-Sep-13 16:00N 40°42' W 074°01'4 8.7
2017-Sep-13 15:30N 40°39' W 074°04'0 0.0
2017-Sep-13 14:57N 40°39' W 074°04'4 8.3
2017-Sep-13 14:25N 40°42' W 074°01'410.4
2017-Sep-13 14:01N 40°39' W 074°04'2 4.4
2017-Sep-13 13:31N 40°40' W 074°03'1 1.4
2017-Sep-13 13:00N 40°41' W 074°02'2 3.2
2017-Sep-13 12:31N 40°40' W 074°03'2 3.1
2017-Sep-13 12:00N 40°41' W 074°02'3 5.1
2017-Sep-13 11:31N 40°39' W 074°04'3 6.7
2017-Sep-13 11:01N 40°42' W 074°01'4 7.3
2017-Sep-13 10:30N 40°39' W 074°04'0 0.0
2017-Sep-13 10:00N 40°39' W 074°04'0 0.0
2017-Sep-13 09:30N 40°39' W 074°04'0 0.0
2017-Sep-13 09:00N 40°39' W 074°04'0 0.0
2017-Sep-13 08:30N 40°39' W 074°04'0 0.0
2017-Sep-13 08:00N 40°39' W 074°04'0 0.0
2017-Sep-13 07:30N 40°39' W 074°04'0 0.0
2017-Sep-13 07:00N 40°39' W 074°04'0 0.0
2017-Sep-13 06:30N 40°39' W 074°04'0 0.0
2017-Sep-13 06:00N 40°39' W 074°04'0 0.0
2017-Sep-13 05:30N 40°39' W 074°04'0 0.0
2017-Sep-13 05:00N 40°39' W 074°04'0 0.0
2017-Sep-13 04:30N 40°39' W 074°04'0 0.0
2017-Sep-13 04:00N 40°39' W 074°04'4 8.6
2017-Sep-13 03:30N 40°42' W 074°01'4 8.6
2017-Sep-13 03:00N 40°39' W 074°04'0 0.0
2017-Sep-13 02:30N 40°39' W 074°04'4 8.6
2017-Sep-13 02:01N 40°42' W 074°01'4 8.6
2017-Sep-13 01:31N 40°39' W 074°04'0 0.0
2017-Sep-13 01:00N 40°39' W 074°04'0 0.0
2017-Sep-13 00:30N 40°39' W 074°04'4 8.6
2017-Sep-13 00:00N 40°42' W 074°01'4 8.6
2017-Sep-12 23:31N 40°39' W 074°04'2 4.1
2017-Sep-12 23:01N 40°40' W 074°03'1 1.3
2017-Sep-12 22:30N 40°41' W 074°02'1 1.7
2017-Sep-12 22:01N 40°40' W 074°03'2 3.1
2017-Sep-12 21:31N 40°41' W 074°02'3 6.1
2017-Sep-12 21:01N 40°39' W 074°04'4 7.6
2017-Sep-12 20:31N 40°42' W 074°01'4 8.3
2017-Sep-12 20:01N 40°39' W 074°04'0 0.2
2017-Sep-12 19:30N 40°39' W 074°04'0 0.0
2017-Sep-12 19:00N 40°39' W 074°04'0 0.0
2017-Sep-12 18:30N 40°39' W 074°04'0 0.0
2017-Sep-12 18:00N 40°39' W 074°04'0 0.0
2017-Sep-12 17:30N 40°39' W 074°04'0 0.0
2017-Sep-12 17:00N 40°39' W 074°04'0 0.0
2017-Sep-12 16:30N 40°39' W 074°04'0 0.1
2017-Sep-12 16:00N 40°39' W 074°04'4 8.7
2017-Sep-12 15:30N 40°42' W 074°01'4 8.5
2017-Sep-12 15:00N 40°39' W 074°04'4 6.9
2017-Sep-12 14:23N 40°42' W 074°01'411.2
2017-Sep-12 14:00N 40°39' W 074°04'2 3.8
2017-Sep-12 13:30N 40°40' W 074°03'1 1.6
2017-Sep-12 13:01N 40°41' W 074°02'1 1.7
2017-Sep-12 12:31N 40°40' W 074°03'1 1.6
2017-Sep-12 12:00N 40°41' W 074°02'2 3.1
2017-Sep-12 11:31N 40°40' W 074°03'2 4.1
2017-Sep-12 11:00N 40°41' W 074°02'3 6.5
2017-Sep-12 10:30N 40°39' W 074°04'0 0.7
2017-Sep-12 10:00N 40°38' W 074°04'0 0.9
2017-Sep-12 09:31N 40°39' W 074°04'0 0.0
2017-Sep-12 09:01N 40°39' W 074°04'0 0.0
2017-Sep-12 08:31N 40°39' W 074°04'0 0.1
2017-Sep-12 08:00N 40°39' W 074°04'0 0.0
2017-Sep-12 07:30N 40°39' W 074°04'0 0.0
2017-Sep-12 07:00N 40°39' W 074°04'0 0.0
2017-Sep-12 06:30N 40°39' W 074°04'0 0.0
2017-Sep-12 06:00N 40°39' W 074°04'0 0.0
2017-Sep-12 05:30N 40°39' W 074°04'0 0.0
2017-Sep-12 05:00N 40°39' W 074°04'0 0.0
2017-Sep-12 04:30N 40°39' W 074°04'0 0.0
2017-Sep-12 04:00N 40°39' W 074°04'4 8.6
2017-Sep-12 03:31N 40°42' W 074°01'4 8.6
2017-Sep-12 03:01N 40°39' W 074°04'0 0.0
2017-Sep-12 02:31N 40°39' W 074°04'  

Dump ship's entire track history